Time;durP1;ratioP1;P1;durP2;ratioP2;P2;SDS_P1;SDS_P2;PMS_P1;PMS_P2;Temp;Humidity;BMP_temperature;BMP_pressure;BME280_temperature;BME280_humidity;BME280_pressure;Samples;Min_cycle;Max_cycle;Signal;HPM_P1;HPM_P2
2023/02/02 00:02:08;;;;;;;27.40;11.20;;;;;;;0.51;85.85;98672.39;79119;1303;3011676;-60
2023/02/02 00:04:36;;;;;;;28.80;11.90;;;;;;;0.39;85.74;98668.98;77993;1302;3028833;-64
2023/02/02 00:07:04;;;;;;;26.90;13.30;;;;;;;0.27;86.14;98669.70;79182;1302;3013258;-60
2023/02/02 00:09:31;;;;;;;27.30;12.00;;;;;;;0.24;86.94;98665.99;79153;1300;3012964;-61
2023/02/02 00:11:59;;;;;;;28.30;13.70;;;;;;;0.01;86.91;98668.42;77947;1303;3052027;-63
2023/02/02 00:14:26;;;;;;;27.10;12.70;;;;;;;-0.18;88.38;98669.36;79209;1299;3019267;-63
2023/02/02 00:16:54;;;;;;;18.20;9.00;;;;;;;-0.26;88.47;98667.18;79148;1303;3011586;-60
2023/02/02 00:19:28;;;;;;;15.50;7.30;;;;;;;0.14;88.23;98660.79;77909;1301;3052738;-64
2023/02/02 00:21:55;;;;;;;22.80;10.40;;;;;;;0.60;85.71;98662.63;79194;1299;3011568;-64
2023/02/02 00:24:23;;;;;;;24.30;10.40;;;;;;;0.76;84.97;98656.41;77904;1303;3050381;-64
2023/02/02 00:26:52;;;;;;;21.80;10.40;;;;;;;0.78;84.48;98653.41;79186;1307;3018984;-65
2023/02/02 00:29:24;;;;;;;27.60;11.50;;;;;;;0.63;84.57;98654.25;79266;1302;3011672;-63
2023/02/02 00:31:52;;;;;;;25.80;11.20;;;;;;;0.36;85.46;98649.80;77946;1303;3050892;-63
2023/02/02 00:34:19;;;;;;;22.70;11.00;;;;;;;0.08;86.71;98648.25;79254;1298;3012915;-65
2023/02/02 00:36:47;;;;;;;28.50;12.60;;;;;;;0.18;87.09;98652.23;79169;1297;3013186;-62
2023/02/02 00:39:18;;;;;;;27.30;12.50;;;;;;;-0.12;87.83;98650.05;77942;1302;3050615;-62
2023/02/02 00:41:45;;;;;;;17.00;6.20;;;;;;;-0.18;88.41;98649.55;79194;1302;3012962;-62
2023/02/02 00:47:01;;;;;;;18.30;8.40;;;;;;;0.82;84.84;98636.73;78034;1303;3069512;-63
2023/02/02 00:49:28;;;;;;;22.70;9.60;;;;;;;0.78;84.36;98639.80;79268;1299;3013059;-62
2023/02/02 00:51:56;;;;;;;21.20;10.20;;;;;;;0.82;84.00;98633.60;79137;1298;3013228;-62
2023/02/02 00:54:25;;;;;;;21.10;10.20;;;;;;;0.66;84.44;98638.65;77984;1302;3052694;-63
2023/02/02 00:56:51;;;;;;;24.90;11.10;;;;;;;0.33;85.56;98640.06;79261;1303;3013545;-62
2023/02/02 00:59:18;;;;;;;22.60;11.50;;;;;;;0.13;86.39;98635.85;79182;1304;3013220;-63
2023/02/02 01:01:46;;;;;;;22.50;10.90;;;;;;;0.05;86.91;98632.84;77976;1303;3068911;-62
2023/02/02 01:04:13;;;;;;;24.60;11.00;;;;;;;-0.07;87.48;98634.42;79146;1301;3013372;-63
2023/02/02 01:06:40;;;;;;;16.90;8.20;;;;;;;-0.21;88.40;98636.72;79167;1301;3011718;-63
2023/02/02 01:09:08;;;;;;;18.90;8.00;;;;;;;-0.10;88.02;98628.66;78170;1296;3025699;-63
2023/02/02 01:11:34;;;;;;;19.00;8.70;;;;;;;0.40;86.27;98625.55;79283;1300;3013498;-61
2023/02/02 01:14:01;;;;;;;22.60;9.80;;;;;;;0.38;85.80;98625.95;79298;1300;3013867;-61
2023/02/02 01:16:29;;;;;;;26.60;11.80;;;;;;;0.31;85.89;98625.31;78014;1300;3026262;-62
2023/02/02 01:18:56;;;;;;;22.10;10.40;;;;;;;0.26;85.88;98625.48;79343;1295;3012558;-61
2023/02/02 01:21:23;;;;;;;24.40;11.40;;;;;;;0.16;86.32;98626.64;79213;1296;3011916;-62
2023/02/02 01:23:52;;;;;;;21.80;10.60;;;;;;;0.13;86.55;98623.12;78056;1300;3052515;-61
2023/02/02 01:26:18;;;;;;;23.60;11.80;;;;;;;-0.07;87.06;98625.97;79251;1307;3013469;-62
2023/02/02 01:28:45;;;;;;;24.90;13.10;;;;;;;-0.13;87.41;98624.80;79266;1300;3011842;-68
2023/02/02 01:31:15;;;;;;;16.40;8.40;;;;;;;-0.34;88.30;98627.83;78147;1300;3028604;-63
2023/02/02 01:33:43;;;;;;;18.00;8.10;;;;;;;-0.11;88.14;98628.50;79457;1296;3011464;-66
2023/02/02 01:39:40;;;;;;;22.20;10.10;;;;;;;0.39;85.23;98631.08;77986;1300;3048967;-63
2023/02/02 01:42:13;;;;;;;27.40;12.20;;;;;;;0.21;85.27;98635.09;79282;1302;3012686;-63
2023/02/02 01:45:12;;;;;;;28.70;11.50;;;;;;;-0.08;86.86;98634.27;77968;1310;3049362;-67
2023/02/02 01:47:46;;;;;;;22.40;10.70;;;;;;;-0.18;87.25;98639.71;78021;1299;3052584;-64
2023/02/02 01:50:16;;;;;;;21.30;10.60;;;;;;;-0.38;88.05;98639.98;78706;1301;3011623;-63
2023/02/02 01:52:44;;;;;;;25.10;11.00;;;;;;;-0.44;88.57;98642.04;79418;1300;3012675;-62
2023/02/02 01:55:11;;;;;;;29.60;11.60;;;;;;;-0.48;89.16;98645.95;79257;1298;3011777;-62
2023/02/02 01:57:43;;;;;;;21.00;8.30;;;;;;;-0.48;89.59;98645.79;78005;1299;3056229;-60
2023/02/02 02:00:12;;;;;;;20.70;8.60;;;;;;;-0.06;88.63;98650.40;79247;1300;3012835;-62
2023/02/02 02:02:44;;;;;;;24.90;9.40;;;;;;;0.41;85.95;98648.06;78006;1300;3052776;-63
2023/02/02 02:05:11;;;;;;;21.50;10.70;;;;;;;0.38;85.52;98643.87;79272;1300;3012742;-62
2023/02/02 02:07:39;;;;;;;23.50;10.50;;;;;;;0.34;85.12;98641.77;79203;1302;3011746;-61
2023/02/02 02:10:07;;;;;;;22.60;10.80;;;;;;;0.25;85.47;98643.08;78006;1297;3068882;-63
2023/02/02 02:12:34;;;;;;;31.30;12.70;;;;;;;0.05;85.89;98649.90;79252;1296;3013838;-62
2023/02/02 02:18:15;;;;;;;23.60;10.50;;;;;;;0.00;86.94;98640.56;78041;1300;3051333;-62
2023/02/02 02:26:32;;;;;;;21.90;10.50;;;;;;;-0.27;87.95;98637.24;77887;1300;3050272;-61
2023/02/02 02:28:05;;;;;;;14.70;6.20;;;;;;;-0.19;88.08;98639.44;77967;1300;3051458;-61
2023/02/02 02:30:56;;;;;;;26.20;10.20;;;;;;;0.71;85.83;98643.48;77995;1300;3053996;-62
2023/02/02 02:33:26;;;;;;;23.80;10.30;;;;;;;0.86;83.34;98639.50;77929;1296;3068621;-61
2023/02/02 02:36:03;;;;;;;32.80;12.60;;;;;;;0.99;83.31;98645.28;79197;1303;3013665;-66
2023/02/02 02:38:49;;;;;;;27.40;12.10;;;;;;;0.61;83.73;98646.55;77912;1299;3048827;-62
2023/02/02 02:41:20;;;;;;;27.80;11.40;;;;;;;0.16;85.79;98651.79;78072;1298;3053248;-62
2023/02/02 02:44:06;;;;;;;21.90;11.10;;;;;;;-0.01;86.95;98654.38;79166;1298;3013635;-64
2023/02/02 02:46:34;;;;;;;19.60;9.80;;;;;;;-0.03;88.05;98654.09;77919;1300;3052372;-63
2023/02/02 02:49:01;;;;;;;23.50;11.00;;;;;;;0.04;87.46;98654.75;79212;1300;3019239;-64
2023/02/02 02:51:39;;;;;;;23.90;10.70;;;;;;;-0.06;87.71;98655.22;79238;1301;3011656;-64
2023/02/02 02:54:09;;;;;;;16.70;6.70;;;;;;;0.02;87.58;98659.11;77990;1300;3057428;-62
2023/02/02 02:57:01;;;;;;;14.60;7.80;;;;;;;0.38;87.39;98659.52;79322;1297;3011874;-62
2023/02/02 02:59:54;;;;;;;17.70;7.90;;;;;;;0.99;84.44;98659.41;78039;1300;3050022;-62
2023/02/02 03:02:56;;;;;;;17.50;8.50;;;;;;;0.93;83.84;98656.17;77820;1300;3052694;-62
2023/02/02 03:06:07;;;;;;;18.60;9.40;;;;;;;0.51;85.04;98664.46;78005;1300;3053133;-62
2023/02/02 03:08:51;;;;;;;21.20;9.00;;;;;;;0.28;86.75;98667.27;77850;1306;3070051;-61
2023/02/02 03:11:18;;;;;;;;;;;;;;;0.23;87.15;98664.67;77992;1297;3049780;-61
2023/02/02 03:13:45;;;;;;;19.20;9.50;;;;;;;-0.02;87.96;98662.85;79212;1297;3013097;-62
2023/02/02 03:16:13;;;;;;;18.80;9.40;;;;;;;-0.11;89.32;98662.10;79156;1300;3011860;-59
2023/02/02 03:18:42;;;;;;;12.10;5.80;;;;;;;-0.20;90.17;98668.20;78007;1300;3049635;-62
2023/02/02 03:21:10;;;;;;;14.20;8.00;;;;;;;0.43;89.17;98668.16;79236;1297;3013321;-63
2023/02/02 03:23:37;;;;;;;16.50;7.80;;;;;;;0.83;86.72;98669.63;79218;1296;3011580;-61
2023/02/02 03:26:05;;;;;;;19.70;8.40;;;;;;;0.87;85.88;98670.89;77974;1300;3052424;-63
2023/02/02 03:28:32;;;;;;;17.60;8.50;;;;;;;0.87;85.73;98673.12;79318;1298;3013090;-63
2023/02/02 03:31:00;;;;;;;18.00;9.30;;;;;;;0.70;86.27;98678.85;79170;1299;3011698;-60
2023/02/02 03:33:29;;;;;;;22.60;9.80;;;;;;;0.70;86.35;98677.81;77959;1299;3049734;-64
2023/02/02 03:35:55;;;;;;;21.50;10.20;;;;;;;0.51;86.78;98682.56;79327;1297;3015329;-62
2023/02/02 03:38:23;;;;;;;27.10;11.60;;;;;;;0.42;87.67;98680.25;79214;1299;3012107;-62
2023/02/02 03:40:51;;;;;;;40.00;14.90;;;;;;;0.54;88.05;98681.77;78050;1298;3052141;-62
2023/02/02 03:43:21;;;;;;;38.40;11.60;;;;;;;0.48;88.04;98687.83;79237;1297;3013424;-62
2023/02/02 03:45:58;;;;;;;54.60;16.30;;;;;;;0.79;86.99;98689.23;78652;1300;3012840;-63
2023/02/02 03:48:26;;;;;;;77.00;23.10;;;;;;;1.39;84.55;98687.02;78021;1300;3054041;-61
2023/02/02 03:50:53;;;;;;;77.80;24.10;;;;;;;1.45;83.81;98688.35;79276;1299;3013571;-64
2023/02/02 03:53:19;;;;;;;80.30;24.80;;;;;;;1.32;83.64;98694.67;79198;1300;3013190;-62
2023/02/02 03:55:47;;;;;;;64.30;20.70;;;;;;;1.20;83.97;98696.99;77976;1297;3026831;-60
2023/02/02 03:58:14;;;;;;;64.80;20.70;;;;;;;0.88;84.64;98698.06;79211;1299;3013621;-61
2023/02/02 04:00:41;;;;;;;48.20;16.10;;;;;;;0.74;85.91;98696.29;79177;1297;3011542;-62
2023/02/02 07:59:19;;;;;;;17.30;7.10;;;;;;;0.04;95.20;98848.47;79939;1303;3013656;-68
2023/02/02 08:01:46;;;;;;;29.20;10.70;;;;;;;0.77;93.83;98843.42;79214;1297;3015839;-65
2023/02/02 08:04:13;;;;;;;32.40;14.50;;;;;;;1.59;89.37;98845.12;79184;1297;3012072;-66
2023/02/02 08:06:41;;;;;;;32.20;13.50;;;;;;;2.07;86.26;98843.81;78020;1303;3052691;-65
2023/02/02 08:09:08;;;;;;;25.40;11.70;;;;;;;2.17;84.42;98844.82;79213;1298;3012928;-69
2023/02/02 08:11:36;;;;;;;25.80;12.00;;;;;;;1.98;84.28;98847.74;77827;1301;3011754;-65
2023/02/02 08:14:04;;;;;;;22.00;10.10;;;;;;;1.97;84.52;98844.84;78060;1300;3049693;-66
2023/02/02 08:16:32;;;;;;;22.30;11.60;;;;;;;2.03;83.88;98847.06;79437;1298;3013506;-64
2023/02/02 08:18:58;;;;;;;24.40;12.10;;;;;;;1.92;83.96;98847.80;79247;1298;3011565;-65
2023/02/02 08:21:26;;;;;;;20.10;9.50;;;;;;;1.83;84.23;98846.00;78109;1300;3051468;-65
2023/02/02 08:23:53;;;;;;;19.10;9.30;;;;;;;2.27;83.28;98844.80;79340;1303;3013035;-65
2023/02/02 08:26:24;;;;;;;20.10;9.40;;;;;;;2.71;81.39;98843.53;79219;1297;3011882;-64
2023/02/02 08:29:03;;;;;;;22.30;10.80;;;;;;;2.82;80.10;98846.37;78192;1302;3049488;-64
2023/02/02 08:31:35;;;;;;;26.40;11.80;;;;;;;2.63;80.12;98842.79;78162;1299;3053981;-63
2023/02/02 08:34:03;;;;;;;23.50;11.40;;;;;;;2.65;80.81;98842.02;79464;1298;3011670;-64
2023/02/02 08:36:30;;;;;;;24.30;10.60;;;;;;;2.34;81.31;98841.95;79271;1299;3013034;-64
2023/02/02 08:39:00;;;;;;;17.90;10.30;;;;;;;2.49;81.28;98838.14;78154;1296;3068179;-65
2023/02/02 08:41:27;;;;;;;19.20;9.70;;;;;;;2.26;81.66;98836.90;79282;1298;3013389;-65
2023/02/02 08:43:55;;;;;;;25.00;10.50;;;;;;;2.39;81.70;98838.84;79229;1295;3012207;-64
2023/02/02 08:46:23;;;;;;;19.90;10.90;;;;;;;2.37;81.37;98845.52;77951;1299;3053233;-62
2023/02/02 08:48:49;;;;;;;18.60;8.80;;;;;;;2.49;81.07;98850.07;79284;1300;3013501;-64
2023/02/02 08:51:17;;;;;;;17.20;7.90;;;;;;;3.23;80.27;98849.95;79423;1300;3011582;-63
2023/02/02 08:53:46;;;;;;;18.50;9.40;;;;;;;3.46;78.27;98854.37;78034;1297;3068079;-63
2023/02/02 08:56:17;;;;;;;18.00;8.30;;;;;;;3.13;78.57;98854.52;79301;1297;3013209;-63
2023/02/02 08:58:47;;;;;;;19.00;9.30;;;;;;;2.94;78.83;98848.18;77952;1297;3049972;-64
2023/02/02 09:01:19;;;;;;;14.60;8.70;;;;;;;2.57;79.64;98843.00;79225;1298;3013677;-64
2023/02/02 09:03:48;;;;;;;18.70;9.50;;;;;;;2.18;81.44;98841.16;78082;1300;3049527;-64
2023/02/02 09:06:16;;;;;;;18.00;9.20;;;;;;;2.19;81.94;98841.13;79314;1300;3018478;-64
2023/02/02 09:08:47;;;;;;;22.50;10.70;;;;;;;2.41;81.61;98836.54;77956;1300;3068123;-64
2023/02/02 09:11:16;;;;;;;26.70;11.50;;;;;;;2.40;81.59;98839.14;79139;1300;3013212;-62
2023/02/02 09:13:44;;;;;;;24.10;11.80;;;;;;;2.52;81.33;98839.91;79133;1297;3013703;-64
2023/02/02 09:16:14;;;;;;;24.70;12.10;;;;;;;2.35;81.43;98837.27;78073;1298;3053439;-65
2023/02/02 09:18:41;;;;;;;26.60;8.50;;;;;;;2.54;81.70;98826.18;79284;1300;3013730;-65
2023/02/02 09:21:09;;;;;;;12.50;7.20;;;;;;;3.13;79.87;98820.41;79504;1300;3011781;-67
2023/02/02 09:23:39;;;;;;;18.20;8.70;;;;;;;3.84;76.82;98822.67;78134;1300;3068363;-65
2023/02/02 09:26:17;;;;;;;20.40;9.80;;;;;;;3.96;74.90;98815.05;79557;1298;3013291;-65
2023/02/02 09:28:48;;;;;;;21.00;10.50;;;;;;;3.54;76.29;98817.69;77963;1300;3057177;-66
2023/02/02 09:31:14;;;;;;;21.30;11.20;;;;;;;3.42;76.85;98814.23;79539;1300;3012863;-63
2023/02/02 09:33:41;;;;;;;20.20;10.40;;;;;;;3.33;77.22;98818.04;79263;1300;3011842;-68
2023/02/02 09:36:17;;;;;;;20.20;11.20;;;;;;;3.06;77.50;98823.83;78050;1300;3052802;-64
2023/02/02 09:38:46;;;;;;;23.80;10.60;;;;;;;3.12;77.56;98827.92;78121;1300;3052095;-65
2023/02/02 09:41:38;;;;;;;16.80;9.40;;;;;;;2.97;77.47;98830.75;79108;1300;3012850;-64
2023/02/02 09:44:24;;;;;;;17.30;9.70;;;;;;;2.61;78.40;98828.86;80086;1297;3056973;-66
2023/02/02 09:47:14;;;;;;;20.50;10.10;;;;;;;2.93;77.98;98829.02;80583;1297;3050253;-64
2023/02/02 09:50:02;;;;;;;21.30;10.00;;;;;;;2.84;77.87;98826.58;80597;1297;3053249;-65
2023/02/02 09:52:41;;;;;;;16.80;8.60;;;;;;;2.55;78.95;98823.39;80573;1297;3049900;-65
2023/02/02 09:55:28;;;;;;;17.10;9.00;;;;;;;2.81;78.22;98822.23;78980;1300;3052631;-64
2023/02/02 09:58:20;;;;;;;15.80;8.80;;;;;;;2.85;77.75;98822.75;78000;1300;3051347;-64
2023/02/02 10:01:10;;;;;;;19.50;8.80;;;;;;;2.61;78.55;98822.98;77978;1298;3069909;-64
2023/02/02 10:04:03;;;;;;;16.70;8.90;;;;;;;2.88;78.09;98827.65;78029;1300;3052297;-64
2023/02/02 10:06:42;;;;;;;14.40;8.00;;;;;;;2.64;78.18;98829.10;78063;1298;3056650;-64
2023/02/02 10:09:25;;;;;;;20.50;9.50;;;;;;;2.53;78.99;98825.20;77908;1300;3049964;-66
2023/02/02 10:11:56;;;;;;;13.20;5.90;;;;;;;2.50;79.15;98824.06;77933;1300;3053330;-64
2023/02/02 10:14:24;;;;;;;11.00;5.60;;;;;;;3.12;77.28;98828.92;79201;1300;3012176;-63
2023/02/02 10:16:53;;;;;;;13.70;7.00;;;;;;;3.48;75.23;98832.32;78114;1300;3026022;-63
2023/02/02 10:19:24;;;;;;;14.70;7.50;;;;;;;3.56;74.76;98827.48;79315;1302;3013205;-65
2023/02/02 10:22:10;;;;;;;15.30;7.60;;;;;;;3.42;74.85;98826.84;77922;1303;3050877;-62
2023/02/02 10:24:38;;;;;;;12.80;7.20;;;;;;;3.43;74.81;98834.08;77980;1300;3056943;-62
2023/02/02 10:27:09;;;;;;;12.40;7.30;;;;;;;3.25;74.93;98832.55;79005;1298;3012052;-63
2023/02/02 10:29:41;;;;;;;15.70;9.00;;;;;;;3.14;75.59;98833.19;78327;1304;3050991;-63
2023/02/02 10:32:27;;;;;;;14.80;8.30;;;;;;;2.97;75.99;98832.30;79281;1298;3011948;-65
2023/02/02 10:34:55;;;;;;;13.90;8.30;;;;;;;2.93;76.53;98822.42;78337;1300;3052432;-64
2023/02/02 10:38:00;;;;;;;13.00;8.30;;;;;;;2.69;77.17;98812.64;79417;1297;3013774;-64
2023/02/02 10:40:34;;;;;;;;;;;;;;;2.80;77.70;98808.58;77724;1303;3056754;-63
2023/02/02 10:46:00;;;;;;;18.00;7.90;;;;;;;2.71;77.85;98811.36;78209;1300;3053795;-62
2023/02/02 10:48:31;;;;;;;22.80;9.30;;;;;;;2.60;78.75;98811.77;79601;1301;3013131;-64
2023/02/02 10:51:26;;;;;;;15.30;8.40;;;;;;;2.79;79.08;98815.58;78356;1300;3050449;-62
2023/02/02 10:53:56;;;;;;;19.70;10.10;;;;;;;2.65;78.28;98820.23;78026;1298;3072303;-64
2023/02/02 10:56:34;;;;;;;17.80;8.70;;;;;;;2.56;79.23;98817.63;79523;1298;3013353;-65
2023/02/02 10:59:05;;;;;;;16.20;7.20;;;;;;;2.61;79.43;98823.86;78376;1300;3057977;-64
2023/02/02 11:01:31;;;;;;;16.20;7.30;;;;;;;3.20;77.93;98824.10;79183;1298;3011549;-63
2023/02/02 11:06:49;;;;;;;12.30;6.90;;;;;;;3.85;74.21;98827.12;78240;1300;3050694;-65
2023/02/02 11:09:22;;;;;;;13.00;6.60;;;;;;;3.76;74.16;98820.40;79301;1300;3013154;-64
2023/02/02 11:12:03;;;;;;;16.20;7.10;;;;;;;3.48;75.09;98826.41;78275;1298;3068869;-67
2023/02/02 11:14:51;;;;;;;16.00;8.60;;;;;;;3.29;75.79;98824.63;78308;1300;3051463;-64
2023/02/02 11:17:23;;;;;;;16.50;7.20;;;;;;;3.45;75.61;98818.41;78064;1299;3056039;-63
2023/02/02 11:19:50;;;;;;;11.00;6.60;;;;;;;3.51;74.81;98824.75;79426;1300;3013516;-67
2023/02/02 11:22:33;;;;;;;13.80;6.90;;;;;;;3.61;74.17;98824.31;79394;1300;3011973;-62
2023/02/02 11:25:38;;;;;;;12.80;6.70;;;;;;;3.39;74.42;98822.83;78171;1299;3052596;-63
2023/02/02 11:28:17;;;;;;;14.40;7.20;;;;;;;3.53;74.39;98829.19;77792;1309;3052885;-62
2023/02/02 11:30:48;;;;;;;16.30;8.20;;;;;;;3.41;74.68;98828.65;78076;1300;3068946;-65
2023/02/02 11:33:27;;;;;;;12.00;7.30;;;;;;;3.25;75.84;98830.70;79518;1298;3013312;-64
2023/02/02 11:35:57;;;;;;;14.50;7.00;;;;;;;3.29;75.76;98826.34;78107;1300;3056610;-62
2023/02/02 11:38:25;;;;;;;20.30;8.40;;;;;;;3.26;75.75;98828.72;79355;1300;3013944;-66
2023/02/02 11:41:02;;;;;;;18.00;8.80;;;;;;;3.31;75.79;98827.52;78869;1300;3011657;-64
2023/02/02 11:43:33;;;;;;;14.40;7.70;;;;;;;3.35;75.48;98830.62;77996;1303;3050664;-63
2023/02/02 11:46:04;;;;;;;17.00;7.80;;;;;;;3.24;75.43;98833.99;79240;1300;3011625;-65
2023/02/02 11:48:37;;;;;;;12.60;7.10;;;;;;;3.00;76.51;98835.85;78093;1300;3051862;-66
2023/02/02 11:51:04;;;;;;;12.20;6.40;;;;;;;3.05;76.60;98837.02;79340;1299;3012385;-65
2023/02/02 11:53:44;;;;;;;13.10;6.30;;;;;;;2.94;76.53;98842.10;78054;1295;3049686;-64
2023/02/02 11:56:20;;;;;;;14.60;6.30;;;;;;;2.84;77.67;98838.19;78142;1300;3056873;-63
2023/02/02 11:58:49;;;;;;;13.80;5.50;;;;;;;2.77;78.56;98833.09;78294;1298;3048560;-63
2023/02/02 12:01:26;;;;;;;13.30;5.00;;;;;;;3.35;77.90;98835.80;79698;1300;3015371;-67
2023/02/02 12:04:00;;;;;;;17.10;6.60;;;;;;;4.22;74.74;98830.00;78198;1299;3053766;-64
2023/02/02 12:06:34;;;;;;;12.60;6.20;;;;;;;3.98;74.46;98844.77;78748;1300;3011519;-64
2023/02/02 12:09:08;;;;;;;15.00;6.60;;;;;;;3.82;75.29;98838.33;79494;1298;3011672;-64
2023/02/02 12:11:40;;;;;;;12.50;5.70;;;;;;;3.77;75.31;98841.68;78190;1299;3070749;-64
2023/02/02 12:14:35;;;;;;;15.80;6.10;;;;;;;3.84;74.60;98848.30;79378;1298;3012077;-62
2023/02/02 12:17:22;;;;;;;13.10;5.70;;;;;;;3.23;76.90;98850.98;78191;1299;3056765;-66
2023/02/02 12:20:00;;;;;;;16.10;7.00;;;;;;;3.05;78.25;98849.30;78047;1300;3052269;-64
2023/02/02 12:22:48;;;;;;;14.90;6.50;;;;;;;3.04;78.69;98849.67;78382;1298;3053900;-62
2023/02/02 12:25:32;;;;;;;11.50;5.90;;;;;;;2.84;78.89;98859.80;78040;1299;3050390;-62
2023/02/02 12:28:07;;;;;;;11.80;5.60;;;;;;;2.78;80.00;98855.71;78145;1311;3052951;-63
2023/02/02 12:30:50;;;;;;;8.90;4.60;;;;;;;2.59;80.92;98862.98;77970;1300;3052245;-63
2023/02/02 12:33:37;;;;;;;;;;;;;;;2.48;81.44;98864.77;78087;1295;3069618;-63
2023/02/02 12:36:29;;;;;;;9.90;4.20;;;;;;;2.68;80.50;98869.39;78171;1300;3053329;-64
2023/02/02 12:39:18;;;;;;;8.60;2.90;;;;;;;2.46;81.21;98866.05;78298;1300;3056530;-65
2023/02/02 12:42:11;;;;;;;5.40;2.20;;;;;;;3.22;80.13;98865.05;78513;1298;3049419;-62
2023/02/02 12:45:24;;;;;;;8.60;3.70;;;;;;;3.63;78.13;98871.35;78271;1299;3053293;-63
2023/02/02 12:47:57;;;;;;;9.80;5.10;;;;;;;3.55;77.67;98874.10;77853;1304;3051555;-63
2023/02/02 12:50:30;;;;;;;;;;;;;;;3.25;78.44;98871.19;78937;1301;3011960;-65
2023/02/02 12:53:16;;;;;;;10.90;5.60;;;;;;;3.09;79.30;98870.40;78178;1300;3052654;-63
2023/02/02 12:55:47;;;;;;;7.20;4.00;;;;;;;2.86;80.16;98874.41;78179;1299;3069034;-65
2023/02/02 12:58:30;;;;;;;7.20;3.60;;;;;;;2.61;81.45;98878.32;79728;1300;3011612;-65
2023/02/02 13:01:07;;;;;;;7.30;3.20;;;;;;;2.52;82.00;98879.18;78011;1300;3056920;-65
2023/02/02 13:03:45;;;;;;;8.10;3.10;;;;;;;2.40;82.61;98881.86;78164;1301;3048865;-64
2023/02/02 13:06:33;;;;;;;7.30;3.90;;;;;;;2.33;82.89;98888.50;78414;1298;3052979;-66
2023/02/02 13:09:03;;;;;;;10.10;4.50;;;;;;;2.20;83.66;98885.50;78114;1308;3051754;-64
2023/02/02 13:11:50;;;;;;;5.90;2.00;;;;;;;2.23;84.09;98881.41;79452;1300;3012894;-64
2023/02/02 13:14:26;;;;;;;4.80;2.20;;;;;;;2.72;82.99;98883.24;78282;1298;3052305;-65
2023/02/02 13:17:26;;;;;;;6.90;3.40;;;;;;;3.20;80.12;98880.17;78223;1296;3068564;-65
2023/02/02 13:19:57;;;;;;;5.70;3.40;;;;;;;3.31;79.63;98885.66;78170;1306;3052746;-67
2023/02/02 13:22:35;;;;;;;5.50;3.70;;;;;;;3.10;80.20;98884.39;79707;1308;3013124;-65
2023/02/02 13:25:07;;;;;;;5.80;3.40;;;;;;;3.00;80.85;98884.27;78224;1304;3049180;-64
2023/02/02 13:27:34;;;;;;;6.40;4.00;;;;;;;2.95;80.86;98883.77;79622;1300;3012321;-62
2023/02/02 13:30:25;;;;;;;6.70;4.00;;;;;;;2.75;81.55;98886.25;78430;1299;3028376;-63
2023/02/02 13:32:57;;;;;;;7.80;4.50;;;;;;;2.49;82.77;98881.67;78205;1299;3052370;-64
2023/02/02 13:35:27;;;;;;;8.30;4.40;;;;;;;2.46;83.41;98889.24;79607;1296;3011527;-64
2023/02/02 13:38:18;;;;;;;10.60;4.70;;;;;;;2.44;83.55;98888.80;78325;1300;3069153;-66
2023/02/02 13:40:46;;;;;;;6.90;3.20;;;;;;;2.34;84.04;98891.56;78132;1298;3051846;-64
2023/02/02 13:44:11;;;;;;;4.70;2.40;;;;;;;2.89;82.78;98889.33;79626;1298;3013619;-69
2023/02/02 13:46:45;;;;;;;7.30;3.90;;;;;;;3.46;79.78;98891.79;77747;1304;3055187;-65
2023/02/02 13:49:22;;;;;;;10.50;4.70;;;;;;;3.54;79.16;98892.65;79055;1302;3011622;-66
2023/02/02 13:52:14;;;;;;;12.90;5.60;;;;;;;3.24;79.87;98888.35;78022;1298;3053401;-66
2023/02/02 13:55:01;;;;;;;9.50;5.10;;;;;;;3.13;80.36;98889.30;78108;1298;3052852;-65
2023/02/02 13:57:47;;;;;;;9.40;5.30;;;;;;;3.05;80.75;98891.34;78232;1295;3069444;-64
2023/02/02 14:00:18;;;;;;;9.00;5.20;;;;;;;3.00;81.14;98890.66;78185;1294;3051203;-65
2023/02/02 14:02:54;;;;;;;14.70;6.80;;;;;;;2.80;82.05;98894.88;79408;1299;3012040;-64
2023/02/02 14:05:24;;;;;;;;;;;;;;;2.79;82.36;98891.30;78517;1294;3048872;-65
2023/02/02 14:08:06;;;;;;;15.00;7.30;;;;;;;2.73;82.60;98900.17;79520;1298;3011737;-65
2023/02/02 14:10:36;;;;;;;12.80;6.10;;;;;;;2.69;82.87;98895.14;78407;1308;3050058;-65
2023/02/02 14:16:01;;;;;;;9.90;4.10;;;;;;;3.21;82.09;98900.23;78246;1308;3052552;-64
2023/02/02 14:18:50;;;;;;;9.60;4.30;;;;;;;3.56;79.94;98897.62;79334;1299;3013096;-65
2023/02/02 14:21:30;;;;;;;10.60;5.20;;;;;;;3.60;79.32;98897.83;78152;1300;3052319;-66
2023/02/02 14:24:35;;;;;;;10.90;5.30;;;;;;;3.39;79.92;98898.65;78362;1298;3057271;-67
2023/02/02 14:27:07;;;;;;;11.70;5.90;;;;;;;3.15;80.74;98900.29;78359;1300;3048770;-68
2023/02/02 14:29:35;;;;;;;10.60;6.30;;;;;;;3.04;81.66;98902.48;79518;1295;3011978;-67
2023/02/02 14:32:06;;;;;;;14.30;6.40;;;;;;;2.82;82.95;98901.06;78241;1306;3049248;-67
2023/02/02 14:34:40;;;;;;;16.90;8.10;;;;;;;2.62;83.35;98901.08;79596;1298;3011508;-66
2023/02/02 14:37:25;;;;;;;16.20;8.80;;;;;;;2.52;84.25;98909.75;78233;1293;3052238;-66
2023/02/02 14:40:07;;;;;;;16.00;7.70;;;;;;;2.45;84.86;98910.70;78231;1306;3069470;-66
2023/02/02 14:45:33;;;;;;;9.10;4.90;;;;;;;2.92;83.90;98921.26;78284;1297;3056806;-64
2023/02/02 14:48:11;;;;;;;17.20;6.50;;;;;;;3.20;81.94;98923.45;78340;1300;3048875;-68
2023/02/02 14:50:50;;;;;;;14.90;6.80;;;;;;;3.12;81.79;98919.96;78474;1300;3053191;-63
2023/02/02 14:53:20;;;;;;;14.30;7.50;;;;;;;3.08;81.91;98923.08;78421;1298;3049989;-63
2023/02/02 14:55:51;;;;;;;17.50;7.80;;;;;;;2.77;82.52;98930.63;79562;1294;3013554;-67
2023/02/02 14:58:27;;;;;;;14.80;7.70;;;;;;;2.43;83.95;98935.14;78210;1299;3068890;-65
2023/02/02 15:01:04;;;;;;;18.80;8.50;;;;;;;2.29;84.70;98947.55;78053;1306;3050838;-67
2023/02/02 15:03:45;;;;;;;19.40;9.80;;;;;;;2.16;85.57;98949.21;78087;1294;3057443;-67
2023/02/02 15:06:21;;;;;;;23.60;11.40;;;;;;;2.07;86.19;98952.83;78192;1299;3049826;-64
2023/02/02 15:09:26;;;;;;;16.30;6.80;;;;;;;2.07;86.40;98957.83;78290;1295;3054877;-64
2023/02/02 15:15:00;;;;;;;14.50;6.80;;;;;;;2.89;82.23;98954.92;78256;1297;3053167;-70
2023/02/02 15:17:40;;;;;;;11.60;6.80;;;;;;;2.91;81.62;98956.23;78439;1298;3052934;-67
2023/02/02 15:20:25;;;;;;;12.10;6.60;;;;;;;2.84;81.58;98958.58;78124;1300;3068372;-66
2023/02/02 15:23:16;;;;;;;13.80;7.20;;;;;;;2.62;81.58;98963.69;78375;1308;3052117;-65
2023/02/02 15:25:50;;;;;;;13.60;7.10;;;;;;;2.32;83.04;98965.97;78280;1298;3056010;-65
2023/02/02 15:28:21;;;;;;;18.30;8.50;;;;;;;2.23;83.53;98969.21;79375;1294;3012797;-66
2023/02/02 15:30:55;;;;;;;22.10;8.80;;;;;;;2.08;83.97;98970.23;78223;1293;3052594;-65
2023/02/02 15:33:27;;;;;;;14.20;8.00;;;;;;;1.87;84.82;98969.52;79366;1300;3013740;-64
2023/02/02 15:35:56;;;;;;;19.30;8.20;;;;;;;1.67;85.43;98972.61;78019;1299;3054722;-65
2023/02/02 15:38:31;;;;;;;11.20;5.20;;;;;;;1.72;85.43;98970.21;79413;1300;3011790;-65
2023/02/02 15:41:07;;;;;;;11.50;5.60;;;;;;;2.26;83.70;98975.98;78243;1298;3069368;-66
2023/02/02 15:43:38;;;;;;;16.00;6.20;;;;;;;2.64;81.32;98974.66;78367;1298;3051836;-64
2023/02/02 15:46:06;;;;;;;18.70;7.30;;;;;;;2.78;80.66;98977.11;79997;1294;3018442;-66
2023/02/02 15:48:33;;;;;;;16.90;7.60;;;;;;;2.55;80.57;98978.13;79423;1292;3011507;-66
2023/02/02 15:51:06;;;;;;;11.50;6.40;;;;;;;2.47;80.83;98976.48;78210;1298;3050257;-66
2023/02/02 15:53:39;;;;;;;19.90;7.90;;;;;;;2.26;81.21;98984.49;79389;1294;3012823;-64
2023/02/02 15:56:23;;;;;;;12.70;7.30;;;;;;;2.12;81.88;98985.30;78183;1299;3051599;-63
2023/02/02 15:58:53;;;;;;;11.30;6.40;;;;;;;1.86;82.76;98988.23;78467;1298;3068739;-65
2023/02/02 16:01:21;;;;;;;12.80;6.90;;;;;;;1.82;83.36;98989.23;79623;1292;3013765;-65
2023/02/02 16:04:12;;;;;;;17.50;7.70;;;;;;;1.79;83.58;98987.40;79047;1292;3011374;-65
2023/02/02 16:06:40;;;;;;;13.10;7.80;;;;;;;1.63;84.16;98991.92;78346;1297;3050859;-65
2023/02/02 16:09:24;;;;;;;10.80;5.20;;;;;;;1.62;84.47;98992.63;79457;1294;3018569;-65
2023/02/02 16:11:52;;;;;;;11.40;5.20;;;;;;;2.24;82.92;98998.36;78325;1297;3053535;-65
2023/02/02 16:14:19;;;;;;;11.50;5.50;;;;;;;2.69;80.84;98998.91;79661;1294;3020908;-65
2023/02/02 16:16:48;;;;;;;18.10;7.30;;;;;;;2.67;79.75;98999.65;79562;1294;3011869;-66